Terminal Aerodrome Forecast
Issued by NWS

Home | Current Version | Previous Version | Text Only | Print | Product List | Glossary On
Versions: 1 2 3 4 5 6 7 8 9 10 11 12 13 14 15 16 17 18 19 20 21 22 23 24 25 26 27 28 29 30 31 32 33 34
231
FTUS42 KRAH 210059 AAA
TAFRWI
TAF AMD
KRWI 210059Z 2101/2124 03004KT 4SM BR BKN005
      TEMPO 2101/2104 00000KT 6SM BR OVC010
     FM210600 00000KT 1SM BR OVC007
     FM211000 00000KT 1/2SM FG OVC004
     FM211300 15003KT 2SM BR OVC005
     FM211700 17003KT 3SM BR OVC008=

USA.gov is the U.S. government's official web portal to all federal, state and local government web resources and services.